Archival Weather

Snohomish County (Paine Fld)

Everett, Washington (KPAE)

Report from: Sunday, October 29, 2023 11:53 PM PDT
Current time: Friday, June 14, 2024 4:55 AM PDT

Current weather – Weather history – Daily summaries
Weather forecast

Temperature3.9°C (39.0°F)
Wind chill2.6°C (36.7°F)
Dew point2.2°C (36.0°F)
Winds 3 kts (1.5 m/s, 3.5 mph) North-Northeast (20°)
Visibility10 mi. (16.1 km)
Clouds Sky clear
Altimeter30.38 in.Hg (1029 mB)
Relative humidity89 %
Density altitude-1,772 ft. (-540 m)
Sea-level pressure102.9 kPa (1029 mB, 30.39 in.Hg)
Remarks Fully automated report
Automated weather observing station with precipitation discriminator
Flight conditions Visual Meteorological Conditions
Raw dataKPAE 300653Z AUTO 02003KT 10SM CLR 04/02 A3038 RMK AO2 SLP290 T00390022
An error has occurred. This application may no longer respond until reloaded. Reload 🗙